• Join FlightAware (Why Join?)
  • Login
  • US Flag 
11:03PM EST


 

Airport Tracker/Info


-or-


 

Live Flight TrackerFlight Track Log ✈ N72647 ✈ 08-Jul-2013 ✈ KSUS - KBIE

Flight Track Log - Related Links

Times and Time Zones

All times are in EDT time to prevent confusion due to time zone crossing. See the N72647 flight status page for this flight to view local times or setup timezone preferences in your user account.

Time Position Orientation Groundspeed Altitude Reporting Facility
EDT Latitude Longitude Course Direction KTS MPH feet Rate Location/Type
11:51AM 39.0417 -90.9053 291° West 123 142 8,600  Level Kansas City Center
11:52AM 39.0408 -90.9567 269° West 121 139 8,600  Level Kansas City Center
11:53AM 39.0389 -90.9994 267° West 122 140 8,600  Level Kansas City Center
11:54AM 39.0369 -91.0422 267° West 120 138 8,600  Level Kansas City Center
11:55AM 39.0425 -91.0856 279° West 121 139 8,600  Level Kansas City Center
11:56AM 38.7458 -90.9311 291° West  Level Estimated
11:56AM 39.0478 -91.1283 279° West 122 140 8,600  Level Kansas City Center
11:57AM 38.7597 -90.9777 291° West  Level Estimated
11:57AM 39.0531 -91.1800 278° West 121 139 8,600  Level Kansas City Center
11:58AM 39.0581 -91.2225 279° West 121 139 8,600  Level Kansas City Center
11:59AM 39.0633 -91.2644 279° West 120 138 8,600  Level Kansas City Center
12:00PM 39.0667 -91.3072 276° West 120 138 8,600  Level Kansas City Center
12:01PM 39.0686 -91.3511 273° West 122 140 8,600  Level Kansas City Center
12:02PM 39.0714 -91.3936 275° West 121 139 8,600  Level Kansas City Center
12:03PM 39.0750 -91.4447 275° West 120 138 8,600  Level Kansas City Center
12:04PM 39.0786 -91.4864 276° West 119 137 8,600  Level Kansas City Center
12:05PM 39.0814 -91.5283 275° West 118 136 8,600  Level Kansas City Center
12:06PM 39.0836 -91.5708 274° West 119 137 8,600  Level Kansas City Center
12:07PM 39.0864 -91.6156 275° West 124 143 8,600  Level Kansas City Center
12:08PM 39.0889 -91.6572 274° West 120 138 8,600  Level Kansas City Center
12:09PM 39.0925 -91.7089 275° West 123 142 8,600  Level Kansas City Center
12:11PM 39.0953 -91.7503 275° West 119 137 8,600  Level Kansas City Center
12:12PM 39.0978 -91.7933 274° West 119 137 8,600  Level Kansas City Center
12:13PM 39.1017 -91.8358 277° West 120 138 8,600  Level Kansas City Center
12:14PM 39.1042 -91.8853 274° West 117 135 8,600  Level Kansas City Center
12:15PM 39.1072 -91.9264 275° West 116 133 8,600  Level Kansas City Center
12:16PM 39.1106 -91.9706 276° West 121 139 8,600  Level Kansas City Center
12:17PM 39.1136 -92.0111 276° West 117 135 8,600  Level Kansas City Center
12:18PM 39.1172 -92.0556 276° West 121 139 8,600  Level Kansas City Center
12:19PM 39.1203 -92.0983 275° West 121 139 8,600  Level Kansas City Center
12:20PM 39.1225 -92.1411 274° West 120 138 8,600  Level Kansas City Center
12:21PM 39.1186 -92.1942 265° West 121 139 8,600  Level Kansas City Center
12:22PM 39.1169 -92.2378 267° West 122 140 8,600  Level Kansas City Center
12:23PM 39.1181 -92.2817 272° West 122 140 8,600  Level Kansas City Center
12:24PM 39.1186 -92.3250 271° West 122 140 8,600  Level Kansas City Center
12:25PM 39.1169 -92.3692 267° West 123 142 8,600  Level Kansas City Center
12:26PM 39.1178 -92.4111 271° West 120 138 8,600  Level Kansas City Center
12:27PM 39.1161 -92.4631 268° West 120 138 8,700  Climbing Kansas City Center
12:28PM 39.1164 -92.5061 270° West 121 139 8,700  Level Kansas City Center
12:29PM 39.1172 -92.5492 271° West 121 139 8,700  Level Kansas City Center
12:30PM 39.1167 -92.5908 269° West 119 137 8,700  Level Kansas City Center
12:31PM 39.1153 -92.6342 268° West 120 138 8,700  Level Kansas City Center
12:32PM 39.1156 -92.6789 270° West 123 142 8,700  Level Kansas City Center
12:33PM 39.1144 -92.7261 268° West 123 142 8,700  Level Kansas City Center
12:34PM 39.1144 -92.7678 270° West 120 138 8,700  Level Kansas City Center
12:35PM 39.1142 -92.8117 270° West 122 140 8,700  Level Kansas City Center
12:36PM 39.1136 -92.8639 269° West 121 139 8,700  Level Kansas City Center
12:37PM 39.1136 -92.9081 270° West 125 144 8,700  Level Kansas City Center
12:38PM 39.1131 -92.9517 269° West 124 143 8,700  Level Kansas City Center
12:39PM 39.1131 -92.9939 270° West 122 140 8,700 -60 Level Kansas City Center
12:41PM 39.1122 -93.0386 269° West 124 143 8,600 -60 Descending Kansas City Center
12:42PM 39.1117 -93.0822 269° West 124 143 8,600  Level Kansas City Center
12:43PM 39.1111 -93.1347 269° West 123 142 8,600  Level Kansas City Center
12:44PM 39.1247 -93.1761 293° West 135 155 8,600  Level Kansas City Center
12:45PM 39.1369 -93.2181 291° West 130 150 8,600  Level Kansas City Center
12:46PM 39.1517 -93.2581 295° West 127 146 8,600  Level Kansas City Center
12:47PM 39.1656 -93.2986 294° West 126 145 8,600  Level Kansas City Center
12:48PM 39.1808 -93.3464 292° West 124 143 8,600  Level Kansas City Center
12:49PM 39.1947 -93.3886 293° West 125 144 8,600  Level Kansas City Center
12:50PM 39.2083 -93.4342 291° West 128 147 8,600  Level Kansas City Center
12:51PM 39.2244 -93.4733 298° West 129 148 8,600  Level Kansas City Center
12:52PM 39.2389 -93.5197 292° West 126 145 8,600  Level Kansas City Center
12:53PM 39.2514 -93.5600 292° West 126 145 8,600  Level Kansas City Center
12:54PM 39.2658 -93.6061 292° West 124 143 8,600  Level Kansas City Center
12:55PM 39.2806 -93.6456 296° West 127 146 8,600  Level Kansas City Center
12:56PM 39.2944 -93.6878 293° West 127 146 8,600 -60 Level Kansas City Center
12:57PM 39.3086 -93.7300 293° West 129 148 8,500  Descending Kansas City Center
12:58PM 39.3242 -93.7806 292° West 125 144 8,600  Climbing Kansas City Center
12:59PM 39.3375 -93.8217 293° West 128 147 8,500  Descending Kansas City Center
01:00PM 39.3533 -93.8689 293° West 128 147 8,600  Climbing Kansas City Center
01:01PM 39.3664 -93.9103 292° West 129 148 8,600  Level Kansas City Center
01:02PM 39.3825 -93.9572 294° West 127 146 8,600  Level Kansas City Center
01:03PM 39.3958 -93.9981 293° West 130 150 8,600  Level Kansas City Center
01:04PM 39.4108 -94.0458 292° West 128 147 8,600  Level Kansas City Center
01:05PM 39.4244 -94.0858 294° West 127 146 8,600 -60 Level Kansas City Center
01:06PM 39.4375 -94.1256 293° West 126 145 8,500  Descending Kansas City Center
01:07PM 39.4536 -94.1722 294° West 126 145 8,600  Climbing Kansas City Center
01:08PM 39.4831 -94.1997 324° Northwest 134 154 8,600  Level Kansas City Center
01:09PM 39.5161 -94.2314 324° Northwest 133 153 8,600 -60 Level Kansas City Center
01:11PM 39.5364 -94.2672 306° West 132 152 8,500  Descending Kansas City Center
01:12PM 39.5508 -94.3150 291° West 129 148 8,600  Climbing Kansas City Center
01:13PM 39.5642 -94.3556 293° West 129 148 8,600  Level Kansas City Center
01:14PM 39.5803 -94.4022 294° West 127 146 8,600  Level Kansas City Center
01:15PM 39.5936 -94.4425 293° West 127 146 8,600  Level Kansas City Center
01:16PM 39.6069 -94.4897 290° West 126 145 8,600  Level Kansas City Center
01:17PM 39.6167 -94.5297 288° West 123 142 8,600  Level Kansas City Center
01:18PM 39.6292 -94.5775 289° West 125 144 8,600  Level Kansas City Center
01:19PM 39.6406 -94.6178 290° West 124 143 8,600  Level Kansas City Center
01:20PM 39.6542 -94.6722 288° West 124 143 8,600  Level Kansas City Center
01:21PM 39.6653 -94.7131 289° West 124 143 8,600  Level Kansas City Center
01:22PM 39.6772 -94.7606 288° West 125 144 8,600  Level Kansas City Center
01:23PM 39.6883 -94.8006 290° West 123 142 8,600  Level Kansas City Center
01:24PM 39.6994 -94.8489 287° West 125 144 8,600  Level Kansas City Center
01:25PM 39.7108 -94.8889 290° West 125 144 8,600  Level Kansas City Center
01:26PM 39.7231 -94.9361 289° West 123 142 8,600  Level Kansas City Center
01:27PM 39.7342 -94.9764 290° West 124 143 8,600  Level Kansas City Center
01:28PM 39.7467 -95.0228 289° West 123 142 8,600  Level Kansas City Center
01:29PM 39.7572 -95.0631 289° West 122 140 8,600  Level Kansas City Center
01:30PM 39.7719 -95.1092 293° West 123 142 8,600  Level Kansas City Center
01:31PM 39.7833 -95.1478 291° West 120 138 8,600  Level Kansas City Center
01:32PM 39.7972 -95.1919 292° West 119 137 8,600  Level Kansas City Center
01:33PM 39.8092 -95.2289 293° West 116 133 8,600  Level Kansas City Center
01:35PM 39.8228 -95.2747 291° West 119 137 8,600  Level Kansas City Center
01:36PM 39.8350 -95.3136 292° West 121 139 8,600 -60 Level Kansas City Center
01:37PM 39.8486 -95.3575 292° West 118 136 8,500  Descending Kansas City Center
01:38PM 39.8592 -95.3961 290° West 117 135 8,600  Climbing Kansas City Center
01:39PM 39.8700 -95.4350 290° West 117 135 8,500 -240 Descending Kansas City Center
01:40PM 39.8856 -95.4833 293° West 128 147 8,200 -300 Descending Kansas City Center
01:41PM 39.8978 -95.5264 290° West 131 151 7,900 -300 Descending Kansas City Center
01:42PM 39.9158 -95.5744 296° West 132 152 7,600 -300 Descending Kansas City Center
01:43PM 39.9283 -95.6181 291° West 133 153 7,400 -300 Descending Kansas City Center
01:44PM 39.9444 -95.6694 292° West 137 158 7,100 -300 Descending Kansas City Center
01:45PM 39.9572 -95.7147 290° West 139 160 6,800 -300 Descending Kansas City Center
01:46PM 39.9728 -95.7664 291° West 138 159 6,500 -180 Descending Kansas City Center
01:47PM 39.9858 -95.8092 292° West 136 157 6,500  Level Kansas City Center
01:48PM 39.9997 -95.8572 291° West 131 151 6,600  Climbing Kansas City Center
01:49PM 40.0119 -95.8964 292° West 126 145 6,600  Level Kansas City Center
01:50PM 40.0253 -95.9469 289° West 130 150 6,600  Level Kansas City Center
01:51PM 40.0378 -95.9861 293° West 125 144 6,600  Level Kansas City Center
01:52PM 40.0522 -96.0325 292° West 123 142 6,600  Level Kansas City Center
01:53PM 40.0633 -96.0731 290° West 124 143 6,600  Level Kansas City Center
01:54PM 40.0767 -96.1128 294° West 124 143 6,600  Level Kansas City Center
01:55PM 40.0944 -96.1578 297° West 125 144 6,600  Level Kansas City Center
01:56PM 40.1086 -96.1986 294° West 128 147 6,600  Level Kansas City Center
01:57PM 40.1250 -96.2453 295° West 127 146 6,600  Level Kansas City Center
01:58PM 40.1456 -96.2903 301° West 129 148 6,600  Level Minneapolis Center
02:00PM 40.1644 -96.3425 295° West 130 150 6,600 -360 Level Minneapolis Center
02:01PM 40.1917 -96.4233 294° West 134 154 5,700 -480 Descending Kansas City Center
02:02PM 40.2044 -96.4658 291° West 131 151 5,300 -540 Descending Kansas City Center
02:03PM 40.2208 -96.5125 295° West 127 146 4,700 -540 Descending Kansas City Center
02:05PM 40.2353 -96.5528 295° West 127 146 4,200 -540 Descending Kansas City Center
02:06PM 40.2533 -96.6019 296° West 126 145 3,600 -600 Descending Kansas City Center